Time;durP1;ratioP1;P1;durP2;ratioP2;P2;SDS_P1;SDS_P2;PMS_P1;PMS_P2;Temp;Humidity;BMP_temperature;BMP_pressure;BME280_temperature;BME280_humidity;BME280_pressure;Samples;Min_cycle;Max_cycle;Signal;HPM_P1;HPM_P2
2021/05/11 00:00:27;;;;;;;7.05;4.07;;;;;;;17.02;100.00;100061.00;5232617;28;20086;-77
2021/05/11 00:02:58;;;;;;;11.05;4.68;;;;;;;17.02;100.00;100056.56;5232716;28;20102;-76
2021/05/11 00:05:30;;;;;;;8.45;4.50;;;;;;;17.03;100.00;100054.75;5221503;28;20020;-76
2021/05/11 00:08:02;;;;;;;7.65;4.00;;;;;;;17.20;100.00;100042.06;5235975;28;20033;-78
2021/05/11 00:10:32;;;;;;;7.80;4.38;;;;;;;17.25;100.00;100017.94;5235429;28;20557;-77
2021/05/11 00:13:02;;;;;;;6.38;3.90;;;;;;;17.17;100.00;100017.66;5232020;28;20060;-78
2021/05/11 00:15:33;;;;;;;6.95;3.88;;;;;;;17.18;100.00;100014.06;5233089;28;20187;-78
2021/05/11 00:18:03;;;;;;;8.95;4.10;;;;;;;17.24;100.00;100021.53;5232998;28;20025;-77
2021/05/11 00:20:34;;;;;;;6.47;4.03;;;;;;;16.99;100.00;100024.25;5231733;28;20059;-78
2021/05/11 00:23:04;;;;;;;6.07;4.03;;;;;;;17.08;100.00;100010.38;5230869;28;20514;-77
2021/05/11 00:25:34;;;;;;;9.20;4.25;;;;;;;17.06;100.00;100001.72;5232809;28;20610;-78
2021/05/11 00:28:05;;;;;;;6.28;4.10;;;;;;;16.98;100.00;100007.56;5214701;28;20025;-78
2021/05/11 00:30:35;;;;;;;6.70;4.13;;;;;;;16.91;100.00;100011.59;5232241;28;20028;-77
2021/05/11 00:33:05;;;;;;;7.85;4.05;;;;;;;16.92;100.00;100015.06;5231802;28;20028;-78
2021/05/11 00:35:36;;;;;;;8.65;4.50;;;;;;;16.90;100.00;100019.59;5232325;28;20025;-77
2021/05/11 00:38:06;;;;;;;7.83;4.40;;;;;;;16.74;100.00;100018.16;5232091;28;20411;-77
2021/05/11 00:40:36;;;;;;;7.47;4.45;;;;;;;16.77;100.00;100019.63;5231355;28;20271;-76
2021/05/11 00:43:06;;;;;;;6.18;4.30;;;;;;;16.80;100.00;100015.94;5232936;28;20409;-77
2021/05/11 00:45:37;;;;;;;9.88;4.88;;;;;;;16.71;100.00;100013.09;5232282;28;20024;-78
2021/05/11 00:48:07;;;;;;;7.97;4.47;;;;;;;16.77;100.00;100013.53;5231957;28;20108;-78
2021/05/11 00:50:38;;;;;;;7.63;4.57;;;;;;;16.68;100.00;100019.41;5231953;28;20104;-78
2021/05/11 00:53:08;;;;;;;7.85;4.63;;;;;;;16.72;100.00;100020.88;5230507;28;20143;-78
2021/05/11 00:55:39;;;;;;;9.38;4.95;;;;;;;16.65;100.00;100018.78;5231309;28;20025;-76
2021/05/11 00:58:09;;;;;;;7.88;4.68;;;;;;;16.62;100.00;100014.56;5231880;28;20036;-78
2021/05/11 01:00:40;;;;;;;7.90;4.57;;;;;;;16.67;100.00;100008.97;5231466;28;20032;-75
2021/05/11 01:03:10;;;;;;;5.32;4.25;;;;;;;16.73;100.00;100001.47;5231351;28;20032;-77
2021/05/11 01:05:40;;;;;;;7.67;4.87;;;;;;;16.74;100.00;100000.50;5231411;28;20029;-78
2021/05/11 01:08:13;;;;;;;8.95;4.80;;;;;;;16.69;100.00;99988.63;5213053;28;20318;-76
2021/05/11 01:10:43;;;;;;;10.50;4.47;;;;;;;16.54;100.00;99993.13;5231141;28;20036;-78
2021/05/11 01:13:13;;;;;;;6.75;4.55;;;;;;;16.65;100.00;99998.53;5230694;28;20417;-77
2021/05/11 01:15:49;;;;;;;9.43;5.03;;;;;;;16.55;100.00;99986.09;5231056;28;20035;-76
2021/05/11 01:18:32;;;;;;;7.00;5.00;;;;;;;16.36;100.00;99970.66;5231326;28;20021;-78
2021/05/11 01:21:21;;;;;;;8.73;4.85;;;;;;;16.26;100.00;99971.38;5227896;28;20068;-78
2021/05/11 01:24:18;;;;;;;9.15;4.93;;;;;;;16.28;100.00;99956.28;5232313;28;20025;-78
2021/05/11 01:29:40;;;;;;;9.13;5.07;;;;;;;16.09;100.00;99956.72;5231350;28;20036;-77
2021/05/11 01:49:46;;;;;;;12.05;4.47;;;;;;;16.04;100.00;99913.97;5232985;28;20029;-78
2021/05/11 01:52:11;;;;;;;11.45;5.00;;;;;;;15.94;100.00;99920.84;5234577;28;20036;-78
2021/05/11 01:54:49;;;;;;;9.13;4.55;;;;;;;15.83;100.00;99922.47;5249264;22;20073;-78
2021/05/11 02:22:47;;;;;;;9.43;4.57;;;;;;;15.83;100.00;99920.72;5238532;28;20044;-80
2021/05/11 02:25:17;;;;;;;7.05;3.95;;;;;;;15.83;100.00;99912.81;5239562;28;20036;-81
2021/05/11 02:27:48;;;;;;;7.63;4.13;;;;;;;15.98;100.00;99926.72;5236850;28;20401;-78
2021/05/11 02:30:18;;;;;;;8.02;3.83;;;;;;;15.86;100.00;99933.66;5236390;28;20040;-80
2021/05/11 02:32:49;;;;;;;7.28;4.28;;;;;;;16.09;100.00;99934.75;5240518;28;20028;-80
2021/05/11 02:35:19;;;;;;;6.40;4.13;;;;;;;16.10;100.00;99937.31;5232556;28;20025;-81
2021/05/11 02:37:50;;;;;;;7.60;4.43;;;;;;;15.94;100.00;99946.34;5238697;28;20021;-80
2021/05/11 02:40:22;;;;;;;7.60;4.15;;;;;;;15.89;100.00;99941.38;5238284;28;20504;-80
2021/05/11 02:43:01;;;;;;;7.75;4.18;;;;;;;15.99;100.00;99933.69;5231836;28;20029;-80
2021/05/11 02:45:32;;;;;;;6.75;3.65;;;;;;;16.03;100.00;99930.75;5236664;28;20078;-80
2021/05/11 02:48:03;;;;;;;6.72;4.53;;;;;;;15.98;100.00;99927.59;5232642;28;20032;-79
2021/05/11 02:50:34;;;;;;;9.38;4.13;;;;;;;15.88;100.00;99931.78;5236756;28;20097;-79
2021/05/11 02:53:05;;;;;;;9.77;4.72;;;;;;;15.83;100.00;99931.25;5233091;28;20115;-81
2021/05/11 02:55:36;;;;;;;10.95;4.82;;;;;;;15.75;100.00;99930.94;5233239;28;20729;-80
2021/05/11 02:58:06;;;;;;;6.97;4.80;;;;;;;15.80;100.00;99934.09;5233659;28;20105;-79
2021/05/11 03:00:37;;;;;;;8.30;5.20;;;;;;;15.74;100.00;99918.66;5233223;28;20497;-80
2021/05/11 03:03:07;;;;;;;6.47;4.65;;;;;;;15.57;100.00;99911.03;5233310;28;20389;-80
2021/05/11 03:05:38;;;;;;;8.85;5.00;;;;;;;15.55;100.00;99912.94;5233416;28;20064;-80
2021/05/11 03:08:13;;;;;;;8.32;4.72;;;;;;;15.72;100.00;99927.66;5237257;28;20088;-80
2021/05/11 03:10:43;;;;;;;7.28;5.07;;;;;;;15.71;100.00;99939.97;5235053;28;20391;-81
2021/05/11 03:13:13;;;;;;;10.80;5.28;;;;;;;15.68;100.00;99945.44;5232247;28;20120;-80
2021/05/11 03:15:43;;;;;;;7.83;5.70;;;;;;;15.62;100.00;99956.41;5231383;28;20146;-81
2021/05/11 03:18:14;;;;;;;9.23;5.30;;;;;;;15.80;100.00;99955.19;5234360;28;20309;-80
2021/05/11 03:20:44;;;;;;;8.25;5.75;;;;;;;15.86;100.00;99946.03;5233763;28;20442;-78
2021/05/11 03:23:15;;;;;;;7.13;5.30;;;;;;;15.80;100.00;99949.91;5229812;28;20075;-78
2021/05/11 03:25:45;;;;;;;7.93;4.90;;;;;;;15.64;100.00;99949.22;5234965;28;20625;-78
2021/05/11 03:28:15;;;;;;;8.63;4.97;;;;;;;15.67;100.00;99938.47;5230519;28;20540;-77
2021/05/11 03:30:46;;;;;;;11.60;4.93;;;;;;;15.46;100.00;99941.69;5234660;28;20033;-77
2021/05/11 03:33:16;;;;;;;9.40;5.50;;;;;;;15.64;100.00;99951.88;5233660;28;20107;-77
2021/05/11 03:35:47;;;;;;;6.50;4.80;;;;;;;15.57;100.00;99958.47;5223309;28;20037;-78
2021/05/11 03:38:17;;;;;;;8.40;5.25;;;;;;;15.68;100.00;99949.88;5233383;28;20020;-79
2021/05/11 03:40:47;;;;;;;9.18;5.20;;;;;;;15.68;100.00;99942.81;5227782;28;20021;-78
2021/05/11 03:43:22;;;;;;;5.85;4.57;;;;;;;15.75;100.00;99938.84;5230035;28;20378;-78
2021/05/11 03:45:59;;;;;;;11.27;4.60;;;;;;;15.48;100.00;99948.53;5230524;28;20032;-77
2021/05/11 03:48:30;;;;;;;8.02;4.68;;;;;;;15.55;100.00;99949.81;5234143;28;20120;-78
2021/05/11 03:51:05;;;;;;;8.60;4.90;;;;;;;15.59;100.00;99951.34;5229591;28;20107;-79
2021/05/11 03:53:35;;;;;;;6.40;4.53;;;;;;;15.59;100.00;99956.59;5232251;28;20481;-78
2021/05/11 03:56:06;;;;;;;8.60;4.85;;;;;;;15.68;100.00;99950.72;5220563;28;20044;-79
2021/05/11 03:58:36;;;;;;;7.88;4.35;;;;;;;15.58;100.00;99948.78;5229122;28;20031;-78
2021/05/11 04:01:07;;;;;;;8.75;5.05;;;;;;;15.45;100.00;99943.47;5233185;28;20028;-78
2021/05/11 04:03:37;;;;;;;8.27;5.10;;;;;;;15.58;100.00;99938.25;5232295;28;20124;-78
2021/05/11 04:06:07;;;;;;;8.13;5.40;;;;;;;15.51;100.00;99936.97;5229932;28;20612;-78
2021/05/11 04:16:44;;;;;;;8.65;5.70;;;;;;;15.33;100.00;99925.00;5231095;28;20033;-78
2021/05/11 04:19:14;;;;;;;8.85;5.43;;;;;;;15.20;100.00;99930.16;5231280;28;20615;-78
2021/05/11 04:21:45;;;;;;;8.05;5.50;;;;;;;15.35;100.00;99916.06;5230834;28;20056;-77
2021/05/11 04:24:15;;;;;;;9.77;5.07;;;;;;;15.30;100.00;99912.88;5230451;28;20030;-78
2021/05/11 04:26:45;;;;;;;8.65;5.45;;;;;;;15.38;100.00;99902.69;5228716;28;20041;-78
2021/05/11 04:29:15;;;;;;;6.30;5.07;;;;;;;15.35;100.00;99900.25;5230013;28;20457;-78
2021/05/11 04:31:46;;;;;;;10.13;5.55;;;;;;;15.30;100.00;99897.09;5230264;28;20397;-77
2021/05/11 04:34:16;;;;;;;7.50;5.38;;;;;;;15.36;100.00;99917.72;5231133;28;20055;-77
2021/05/11 04:36:46;;;;;;;9.10;5.50;;;;;;;15.52;100.00;99917.59;5237990;28;20030;-77
2021/05/11 04:39:17;;;;;;;9.40;5.60;;;;;;;15.43;100.00;99905.88;5229942;28;20465;-78
2021/05/11 04:41:47;;;;;;;9.23;5.20;;;;;;;15.37;100.00;99898.34;5232761;28;20047;-78
2021/05/11 04:44:20;;;;;;;7.32;4.68;;;;;;;15.25;100.00;99888.63;5238747;28;20021;-79
2021/05/11 04:49:26;;;;;;;8.27;4.93;;;;;;;15.15;100.00;99857.72;5235246;28;20052;-79
2021/05/11 04:51:56;;;;;;;10.40;5.03;;;;;;;15.13;100.00;99856.97;5240411;28;20037;-82
2021/05/11 04:54:27;;;;;;;6.95;4.95;;;;;;;15.21;100.00;99868.69;5238370;28;20115;-81
2021/05/11 04:56:57;;;;;;;7.88;5.20;;;;;;;15.15;100.00;99870.91;5235964;28;20394;-81
2021/05/11 04:59:28;;;;;;;7.03;5.18;;;;;;;15.24;100.00;99872.91;5233216;28;20024;-82
2021/05/11 05:02:00;;;;;;;7.95;4.78;;;;;;;15.23;100.00;99869.44;5233977;28;20044;-81
2021/05/11 05:04:35;;;;;;;8.32;4.40;;;;;;;15.27;100.00;99875.34;5238134;28;20033;-80
2021/05/11 05:07:05;;;;;;;5.85;4.50;;;;;;;15.32;100.00;99879.41;5236822;28;20024;-80
2021/05/11 05:09:35;;;;;;;7.83;4.50;;;;;;;15.27;100.00;99888.50;5243384;28;20029;-80
2021/05/11 05:12:06;;;;;;;9.23;4.37;;;;;;;15.18;100.00;99908.38;5231911;28;20271;-80
2021/05/11 05:14:36;;;;;;;6.05;4.20;;;;;;;15.25;100.00;99911.44;5234394;28;20283;-81
2021/05/11 05:17:06;;;;;;;7.03;4.13;;;;;;;15.23;100.00;99922.09;5238643;28;20021;-81
2021/05/11 05:19:37;;;;;;;6.72;4.13;;;;;;;15.28;100.00;99906.84;5237085;28;20589;-80
2021/05/11 05:22:08;;;;;;;6.43;4.00;;;;;;;15.27;100.00;99896.41;5231433;28;20028;-80
2021/05/11 05:24:58;;;;;;;7.93;4.00;;;;;;;15.04;100.00;99884.72;5227063;28;20029;-78
2021/05/11 05:30:18;;;;;;;7.63;4.00;;;;;;;14.91;100.00;99868.06;5236816;28;20059;-79
2021/05/11 05:32:48;;;;;;;7.57;3.67;;;;;;;14.90;100.00;99861.13;5237165;28;20032;-80
2021/05/11 05:35:19;;;;;;;5.70;3.78;;;;;;;14.94;100.00;99862.59;5245599;28;20054;-78
2021/05/11 05:37:49;;;;;;;6.68;4.05;;;;;;;14.96;100.00;99859.84;5245570;28;20033;-79
2021/05/11 05:40:21;;;;;;;7.33;4.13;;;;;;;14.80;100.00;99859.16;5245721;28;20535;-78
2021/05/11 05:42:52;;;;;;;6.13;3.65;;;;;;;14.98;100.00;99831.69;5240028;28;20267;-79
2021/05/11 05:45:22;;;;;;;6.60;3.63;;;;;;;14.82;100.00;99831.81;5242856;28;20035;-79
2021/05/11 05:47:53;;;;;;;7.20;3.40;;;;;;;14.80;100.00;99847.78;5241305;28;20029;-78
2021/05/11 05:50:26;;;;;;;8.93;3.80;;;;;;;14.86;100.00;99854.34;5234747;28;20024;-81
2021/05/11 05:53:02;;;;;;;6.57;3.58;;;;;;;14.92;100.00;99853.97;5240686;28;20033;-80
2021/05/11 05:55:33;;;;;;;5.95;3.45;;;;;;;15.07;100.00;99862.63;5234786;28;20035;-79
2021/05/11 05:58:03;;;;;;;8.70;3.63;;;;;;;15.12;100.00;99873.69;5235206;28;20024;-79
2021/05/11 06:00:33;;;;;;;6.53;3.40;;;;;;;15.22;100.00;99875.63;5230552;28;20271;-79
2021/05/11 06:03:05;;;;;;;6.28;3.47;;;;;;;15.07;100.00;99862.63;5238844;28;20061;-79
2021/05/11 06:05:35;;;;;;;8.93;3.70;;;;;;;15.11;100.00;99861.50;5226550;28;20532;-78
2021/05/11 06:08:05;;;;;;;4.80;3.28;;;;;;;15.34;100.00;99864.34;5234559;28;20036;-78
2021/05/11 06:10:36;;;;;;;6.03;3.45;;;;;;;15.49;100.00;99880.91;5236313;28;20020;-80
2021/05/11 06:13:11;;;;;;;9.15;3.50;;;;;;;15.20;100.00;99871.44;5232081;28;20466;-78
2021/05/11 06:18:30;;;;;;;6.32;3.65;;;;;;;15.24;100.00;99891.34;5228129;28;20270;-78
2021/05/11 06:21:01;;;;;;;7.60;3.53;;;;;;;15.14;100.00;99891.09;5242058;28;20020;-78
2021/05/11 06:23:31;;;;;;;5.55;3.30;;;;;;;15.42;100.00;99891.03;5240054;28;20104;-78
2021/05/11 06:26:01;;;;;;;4.97;3.10;;;;;;;15.62;100.00;99901.06;5226775;28;20035;-78
2021/05/11 06:28:37;;;;;;;6.22;3.10;;;;;;;15.76;100.00;99895.72;5223953;28;20462;-78
2021/05/11 06:31:08;;;;;;;;;;;;;;;15.82;100.00;99900.56;5224100;28;20031;-79
2021/05/11 06:33:38;;;;;;;6.68;3.10;;;;;;;15.60;100.00;99897.69;5222053;28;19913;-79
2021/05/11 06:36:09;;;;;;;7.97;3.03;;;;;;;15.66;100.00;99899.91;5229629;28;20029;-79
2021/05/11 06:38:39;;;;;;;6.40;3.00;;;;;;;15.44;100.00;99904.06;5223806;28;20025;-78
2021/05/11 06:41:11;;;;;;;6.47;2.70;;;;;;;15.70;100.00;99892.66;5223157;28;20025;-78
2021/05/11 06:43:45;;;;;;;5.68;2.83;;;;;;;15.95;99.47;99904.06;5258572;22;20048;-93
2021/05/11 06:54:14;;;;;;;5.60;2.63;;;;;;;16.56;94.51;99884.88;5247683;28;20090;-92
2021/05/11 06:56:46;;;;;;;6.57;2.40;;;;;;;16.36;96.02;99880.16;5227534;23;20519;-77
2021/05/11 06:59:17;;;;;;;5.65;2.72;;;;;;;16.30;95.46;99870.84;5209281;28;20029;-77
2021/05/11 07:01:47;;;;;;;5.28;2.38;;;;;;;16.02;97.21;99878.97;5214372;28;20029;-77
2021/05/11 07:04:17;;;;;;;6.50;2.75;;;;;;;16.01;96.83;99873.81;5213091;28;20028;-77
2021/05/11 07:09:50;;;;;;;4.25;2.40;;;;;;;16.18;97.92;99870.88;5219053;28;20071;-81
2021/05/11 07:15:11;;;;;;;5.20;2.80;;;;;;;16.02;99.41;99876.34;5211671;28;20123;-81
2021/05/11 07:17:41;;;;;;;5.97;2.70;;;;;;;15.77;99.10;99870.19;5202719;28;20021;-81
2021/05/11 07:20:12;;;;;;;6.20;2.72;;;;;;;15.71;100.00;99870.63;5189608;28;20022;-81
2021/05/11 07:22:42;;;;;;;5.18;2.88;;;;;;;15.87;100.00;99874.75;5189586;28;20136;-81
2021/05/11 07:25:14;;;;;;;11.00;3.10;;;;;;;15.64;100.00;99875.47;5189120;28;20021;-81
2021/05/11 07:27:53;;;;;;;6.28;3.00;;;;;;;15.67;100.00;99869.16;5201569;28;20614;-81
2021/05/11 07:30:29;;;;;;;5.43;2.72;;;;;;;15.60;100.00;99871.34;5208939;28;20048;-81
2021/05/11 07:32:59;;;;;;;5.00;2.60;;;;;;;15.74;100.00;99857.25;5211423;28;20092;-81
2021/05/11 07:35:29;;;;;;;6.05;3.25;;;;;;;15.70;100.00;99853.97;5200464;28;20067;-81
2021/05/11 07:38:00;;;;;;;8.33;3.30;;;;;;;15.69;99.17;99851.44;5183951;28;20025;-80
2021/05/11 07:40:30;;;;;;;5.15;2.90;;;;;;;15.85;99.24;99847.66;5202653;28;20283;-80
2021/05/11 07:43:01;;;;;;;7.00;2.92;;;;;;;15.83;99.22;99839.03;5196423;28;20025;-80
2021/05/11 07:45:38;;;;;;;8.80;3.33;;;;;;;15.97;100.00;99844.19;5189232;28;20096;-81
2021/05/11 08:10:37;;;;;;;4.88;3.00;;;;;;;16.08;98.05;99854.00;5200742;28;20544;-80
2021/05/11 08:16:15;;;;;;;8.27;3.53;;;;;;;15.99;98.88;99865.16;5216239;28;19920;-80
2021/05/11 08:22:05;;;;;;;6.65;2.88;;;;;;;16.04;97.37;99839.34;5191988;28;20092;-81
2021/05/11 08:30:08;;;;;;;5.85;3.10;;;;;;;16.21;96.46;99813.47;5209754;28;20399;-80
2021/05/11 08:32:38;;;;;;;7.88;2.78;;;;;;;16.29;96.40;99799.75;5197733;28;20024;-80
2021/05/11 08:35:09;;;;;;;8.07;3.40;;;;;;;15.91;98.19;99791.88;5212435;28;20031;-81
2021/05/11 08:37:39;;;;;;;6.85;3.05;;;;;;;15.86;98.54;99786.09;5214895;28;20048;-80
2021/05/11 08:40:10;;;;;;;5.75;2.90;;;;;;;15.68;99.48;99776.00;5192217;28;20045;-80
2021/05/11 08:42:41;;;;;;;6.45;3.10;;;;;;;15.62;99.45;99777.25;5211370;28;20022;-80
2021/05/11 08:45:13;;;;;;;6.85;3.30;;;;;;;15.67;100.00;99788.31;5211014;28;20025;-81
2021/05/11 08:47:50;;;;;;;5.72;2.95;;;;;;;15.99;98.58;99805.38;5195280;28;20047;-81
2021/05/11 08:50:38;;;;;;;6.10;2.90;;;;;;;16.20;98.70;99797.78;5213053;28;20037;-81
2021/05/11 09:27:07;;;;;;;6.32;3.08;;;;;;;17.37;89.91;99787.28;5198745;28;20113;-81
2021/05/11 10:48:21;;;;;;;5.82;3.67;;;;;;;18.12;86.64;99792.78;5219032;28;20086;-81
2021/05/11 10:51:00;;;;;;;6.47;3.37;;;;;;;18.05;86.52;99777.53;5184824;28;20040;-81
2021/05/11 10:53:45;;;;;;;5.22;3.20;;;;;;;17.83;86.52;99781.00;5210113;28;20267;-81
2021/05/11 10:56:28;;;;;;;6.40;3.55;;;;;;;17.97;88.53;99775.47;5203223;28;20036;-80
2021/05/11 11:04:31;;;;;;;5.38;3.15;;;;;;;18.32;85.85;99778.84;5210432;28;20625;-81
2021/05/11 11:07:05;;;;;;;8.73;3.33;;;;;;;17.83;87.39;99775.69;5205360;28;20051;-80
2021/05/11 11:09:38;;;;;;;7.47;2.97;;;;;;;18.01;86.15;99773.44;5197689;28;20029;-80
2021/05/11 11:12:10;;;;;;;5.82;3.10;;;;;;;18.16;85.48;99759.84;5199785;28;20571;-80
2021/05/11 11:14:43;;;;;;;8.57;3.40;;;;;;;17.76;87.01;99768.38;5222741;28;20028;-79
2021/05/11 11:17:15;;;;;;;5.30;3.10;;;;;;;17.80;85.26;99760.09;5197375;28;20731;-79
2021/05/11 11:19:53;;;;;;;6.53;3.10;;;;;;;18.01;86.29;99754.94;5220556;28;20028;-80
2021/05/11 11:25:15;;;;;;;5.70;2.70;;;;;;;18.03;85.20;99745.88;5214133;28;20107;-80
2021/05/11 11:27:47;;;;;;;5.10;2.88;;;;;;;18.31;83.49;99745.41;5198006;28;20486;-80
2021/05/11 11:30:19;;;;;;;6.18;2.85;;;;;;;18.19;84.13;99746.34;5215790;28;20036;-80
2021/05/11 11:32:49;;;;;;;4.93;2.63;;;;;;;18.11;84.15;99747.94;5218994;28;20076;-80
2021/05/11 11:35:20;;;;;;;7.60;3.03;;;;;;;17.95;86.17;99750.97;5216668;28;20069;-80
2021/05/11 11:37:51;;;;;;;5.40;2.70;;;;;;;17.99;86.80;99748.91;5203637;28;20024;-80
2021/05/11 11:40:21;;;;;;;5.07;2.10;;;;;;;17.93;86.63;99736.16;5199171;28;20116;-80
2021/05/11 11:42:52;;;;;;;4.13;2.53;;;;;;;17.71;86.00;99728.25;5200759;28;20521;-79
2021/05/11 11:45:27;;;;;;;6.75;2.63;;;;;;;17.87;85.79;99737.50;5198995;28;20047;-79
2021/05/11 11:48:05;;;;;;;7.65;3.00;;;;;;;18.08;86.30;99732.31;5213832;28;20075;-80
2021/05/11 11:50:38;;;;;;;5.28;2.70;;;;;;;17.93;85.43;99723.78;5199172;28;20341;-79
2021/05/11 11:53:14;;;;;;;7.20;3.00;;;;;;;18.24;85.28;99727.47;5199783;28;20055;-80
2021/05/11 11:58:26;;;;;;;5.93;2.50;;;;;;;18.14;85.33;99727.38;5212857;28;20075;-79
2021/05/11 12:00:56;;;;;;;6.72;2.47;;;;;;;18.18;85.86;99730.63;5209977;28;20059;-80
2021/05/11 12:03:26;;;;;;;9.23;2.63;;;;;;;18.05;85.22;99743.13;5219608;28;20049;-79
2021/05/11 12:05:59;;;;;;;6.68;2.75;;;;;;;17.96;84.19;99750.00;5219504;28;20091;-80
2021/05/11 12:08:30;;;;;;;6.35;2.50;;;;;;;18.05;85.81;99759.00;5198657;28;20041;-79
2021/05/11 12:11:06;;;;;;;8.45;3.00;;;;;;;17.94;86.31;99764.28;5200731;28;20020;-79
2021/05/11 12:13:40;;;;;;;6.05;2.20;;;;;;;18.06;86.09;99771.25;5217245;28;20036;-79
2021/05/11 12:16:13;;;;;;;7.20;2.85;;;;;;;18.08;85.22;99764.91;5202794;28;20024;-79
2021/05/11 12:19:10;;;;;;;6.50;2.85;;;;;;;18.06;84.90;99765.97;5199394;28;20039;-79
2021/05/11 12:22:06;;;;;;;9.40;2.95;;;;;;;18.07;85.47;99767.66;5199803;28;20025;-79
2021/05/11 12:24:40;;;;;;;7.53;3.10;;;;;;;17.92;85.36;99768.84;5214221;28;20024;-80
2021/05/11 12:27:21;;;;;;;8.63;2.80;;;;;;;18.06;85.47;99773.91;5198583;28;20466;-79
2021/05/11 12:30:01;;;;;;;8.48;3.20;;;;;;;17.59;86.26;99782.03;5220180;28;20032;-79
2021/05/11 12:32:34;;;;;;;6.55;2.80;;;;;;;17.54;87.26;99778.91;5218554;28;20032;-80
2021/05/11 12:35:13;;;;;;;9.93;2.80;;;;;;;17.77;87.03;99765.63;5217248;28;20486;-80
2021/05/11 12:37:49;;;;;;;11.25;3.10;;;;;;;17.62;87.10;99758.03;5195683;28;20040;-79
2021/05/11 12:40:29;;;;;;;7.55;3.22;;;;;;;17.66;86.97;99762.13;5203619;28;20022;-80
2021/05/11 12:43:02;;;;;;;8.98;3.55;;;;;;;17.64;87.63;99770.16;5193245;28;20068;-79
2021/05/11 12:45:39;;;;;;;7.32;3.50;;;;;;;17.75;87.18;99782.53;5208056;28;20117;-79
2021/05/11 12:48:11;;;;;;;7.18;3.80;;;;;;;17.72;87.36;99780.13;5196169;28;20025;-79
2021/05/11 12:50:43;;;;;;;6.22;3.17;;;;;;;17.64;88.69;99775.44;5195853;28;20112;-80
2021/05/11 12:53:27;;;;;;;9.68;3.42;;;;;;;17.83;87.13;99786.28;5199513;28;20029;-80
2021/05/11 12:56:15;;;;;;;7.13;3.10;;;;;;;17.82;87.65;99789.06;5197917;28;20108;-80
2021/05/11 13:04:38;;;;;;;5.95;3.03;;;;;;;17.89;86.89;99792.91;5219447;28;20044;-80
2021/05/11 13:25:58;;;;;;;8.48;3.03;;;;;;;17.64;87.25;99803.69;5205254;28;20040;-80
2021/05/11 13:36:27;;;;;;;5.70;3.03;;;;;;;17.67;88.11;99777.03;5220840;28;20040;-81
2021/05/11 13:38:58;;;;;;;8.82;3.65;;;;;;;17.68;88.03;99771.59;5207209;28;20018;-80
2021/05/11 13:41:29;;;;;;;7.63;3.00;;;;;;;17.67;88.10;99777.03;5217163;28;20028;-80
2021/05/11 13:44:00;;;;;;;9.43;3.30;;;;;;;17.74;86.99;99780.84;5211811;28;20032;-80
2021/05/11 13:46:31;;;;;;;7.07;3.20;;;;;;;17.70;87.63;99787.34;5191254;28;20026;-80
2021/05/11 13:49:02;;;;;;;6.82;3.10;;;;;;;17.60;87.11;99796.94;5219509;28;20295;-80
2021/05/11 13:51:33;;;;;;;9.20;3.22;;;;;;;17.67;87.72;99798.16;5216029;28;20747;-80
2021/05/11 13:54:06;;;;;;;4.90;3.10;;;;;;;17.60;86.98;99799.56;5204216;28;20048;-79
2021/05/11 14:04:27;;;;;;;8.00;3.67;;;;;;;17.37;89.08;99788.13;5210101;28;20029;-80
2021/05/11 14:06:58;;;;;;;6.15;3.17;;;;;;;17.66;87.12;99793.84;5206190;28;20532;-79
2021/05/11 14:09:28;;;;;;;9.30;3.58;;;;;;;17.49;87.09;99789.00;5182008;28;20025;-80
2021/05/11 14:11:59;;;;;;;13.00;3.45;;;;;;;17.63;86.65;99788.78;5193502;28;20395;-79
2021/05/11 14:14:29;;;;;;;8.88;3.22;;;;;;;17.56;87.54;99784.91;5216619;28;20026;-80
2021/05/11 14:17:02;;;;;;;6.57;2.92;;;;;;;17.65;86.54;99789.50;5202617;28;20025;-80
2021/05/11 14:19:33;;;;;;;9.60;4.22;;;;;;;17.53;87.33;99793.09;5191830;28;20028;-80
2021/05/11 14:22:03;;;;;;;5.95;2.92;;;;;;;17.33;87.45;99791.09;5188826;28;20017;-80
2021/05/11 14:24:33;;;;;;;9.52;3.30;;;;;;;17.21;87.63;99792.00;5194196;28;20237;-81
2021/05/11 14:27:05;;;;;;;10.07;2.90;;;;;;;17.57;89.39;99790.09;5221516;28;20029;-80
2021/05/11 14:29:36;;;;;;;8.95;3.13;;;;;;;17.67;87.86;99790.25;5192659;28;20112;-80
2021/05/11 14:32:06;;;;;;;8.93;3.10;;;;;;;17.54;88.07;99790.34;5196388;28;20652;-79
2021/05/11 14:34:37;;;;;;;8.20;2.83;;;;;;;17.47;89.10;99786.47;5220615;28;20523;-79
2021/05/11 14:37:09;;;;;;;7.47;2.88;;;;;;;17.32;90.67;99782.31;5202765;28;20486;-79
2021/05/11 14:39:39;;;;;;;10.93;3.05;;;;;;;17.42;88.56;99774.56;5218811;28;20021;-79
2021/05/11 14:42:10;;;;;;;8.85;3.13;;;;;;;17.70;88.17;99764.41;5217810;28;20100;-79
2021/05/11 14:44:40;;;;;;;7.95;3.15;;;;;;;17.78;86.94;99767.28;5216106;28;20379;-78
2021/05/11 14:47:10;;;;;;;7.72;3.33;;;;;;;17.78;86.86;99764.66;5219134;28;20061;-79
2021/05/11 14:49:41;;;;;;;7.17;2.90;;;;;;;17.59;86.53;99771.47;5196443;28;20040;-79
2021/05/11 14:52:13;;;;;;;10.68;3.10;;;;;;;17.61;88.01;99774.81;5201114;28;20332;-79
2021/05/11 14:54:43;;;;;;;7.70;3.10;;;;;;;17.65;86.83;99773.66;5200342;28;20041;-78
2021/05/11 14:57:13;;;;;;;7.85;3.13;;;;;;;17.59;88.01;99784.69;5220370;28;20025;-80
2021/05/11 14:59:44;;;;;;;8.68;3.10;;;;;;;17.49;88.08;99781.06;5196619;28;20509;-80
2021/05/11 15:02:14;;;;;;;6.75;2.80;;;;;;;17.44;88.73;99777.91;5216469;28;20033;-80
2021/05/11 15:04:45;;;;;;;6.68;2.88;;;;;;;17.58;88.47;99785.63;5223298;28;20040;-80
2021/05/11 15:07:15;;;;;;;7.27;3.13;;;;;;;17.21;88.92;99784.06;5214655;28;20418;-80
2021/05/11 15:09:45;;;;;;;8.88;3.10;;;;;;;17.18;89.62;99792.22;5192404;28;20313;-81
2021/05/11 15:12:16;;;;;;;7.90;2.92;;;;;;;17.20;89.40;99791.16;5192373;28;20021;-80
2021/05/11 15:14:46;;;;;;;7.35;3.28;;;;;;;17.12;90.61;99793.53;5206793;28;20030;-80
2021/05/11 15:19:55;;;;;;;8.18;2.95;;;;;;;17.04;90.24;99788.00;5211578;28;20078;-80
2021/05/11 15:22:26;;;;;;;8.43;2.67;;;;;;;17.12;90.75;99782.13;5219849;28;20079;-80
2021/05/11 15:24:56;;;;;;;7.90;2.85;;;;;;;17.25;89.93;99772.31;5193058;28;20025;-80
2021/05/11 15:27:27;;;;;;;6.07;2.77;;;;;;;17.14;89.77;99773.13;5196848;28;20040;-80
2021/05/11 15:29:58;;;;;;;7.28;2.95;;;;;;;17.30;90.25;99770.19;5202013;28;20303;-80
2021/05/11 15:32:56;;;;;;;10.05;2.85;;;;;;;17.24;90.65;99770.63;5205558;28;20032;-79
2021/05/11 15:35:30;;;;;;;7.47;3.08;;;;;;;17.38;90.56;99775.75;5202472;28;20033;-79
2021/05/11 15:38:04;;;;;;;10.00;3.00;;;;;;;17.36;88.72;99770.59;5202954;28;20483;-80
2021/05/11 15:40:37;;;;;;;9.45;2.90;;;;;;;17.41;89.25;99770.22;5189015;28;20029;-80
2021/05/11 15:43:08;;;;;;;6.40;3.13;;;;;;;17.42;89.79;99764.84;5201281;28;20060;-79
2021/05/11 15:45:39;;;;;;;8.25;2.92;;;;;;;17.53;88.93;99772.81;5188726;28;20168;-78
2021/05/11 15:48:09;;;;;;;7.68;2.60;;;;;;;17.47;89.49;99769.78;5183923;28;20108;-78
2021/05/11 15:50:42;;;;;;;8.98;3.10;;;;;;;17.48;88.39;99774.94;5193457;28;20119;-80
2021/05/11 15:53:14;;;;;;;8.43;3.20;;;;;;;17.61;88.31;99764.25;5179628;28;20033;-81
2021/05/11 15:55:49;;;;;;;7.13;2.90;;;;;;;17.36;89.54;99760.03;5202906;28;20060;-80
2021/05/11 15:58:19;;;;;;;5.25;2.45;;;;;;;17.47;88.66;99757.41;5213601;28;20020;-80
2021/05/11 16:00:50;;;;;;;7.97;3.00;;;;;;;17.64;88.31;99764.03;5209840;28;20029;-80
2021/05/11 16:03:21;;;;;;;7.82;2.65;;;;;;;17.52;88.99;99763.16;5204365;28;20027;-80
2021/05/11 16:05:51;;;;;;;9.00;3.17;;;;;;;17.41;89.71;99759.66;5215688;28;20037;-80
2021/05/11 16:08:23;;;;;;;6.88;3.13;;;;;;;17.72;87.80;99753.72;5195270;28;20385;-80
2021/05/11 16:10:53;;;;;;;6.53;2.97;;;;;;;17.55;87.14;99749.75;5195687;28;20041;-80
2021/05/11 16:13:25;;;;;;;4.13;2.60;;;;;;;17.67;87.80;99745.31;5193692;28;20028;-80
2021/05/11 16:15:55;;;;;;;7.15;2.92;;;;;;;17.57;88.43;99741.69;5195678;28;20465;-80
2021/05/11 16:18:29;;;;;;;6.97;2.60;;;;;;;17.64;88.92;99738.44;5197761;28;20093;-80
2021/05/11 16:20:59;;;;;;;5.97;2.70;;;;;;;17.63;88.27;99743.88;5216921;28;20082;-79
2021/05/11 16:23:30;;;;;;;7.75;3.05;;;;;;;17.48;89.27;99737.13;5191997;28;20021;-80
2021/05/11 16:26:00;;;;;;;5.80;3.00;;;;;;;17.45;88.97;99742.66;5191746;28;20056;-80
2021/05/11 16:28:30;;;;;;;5.57;2.90;;;;;;;17.37;88.98;99752.94;5188000;28;20706;-80